EST,Max TemperatureF,Mean TemperatureF,Min TemperatureF,Max Dew PointF,MeanDew PointF,Min DewpointF,Max Humidity, Mean Humidity, Min Humidity, Max Sea Level PressureIn, Mean Sea Level PressureIn, Min Sea Level PressureIn, Max VisibilityMiles, Mean VisibilityMiles, Min VisibilityMiles, Max Wind SpeedMPH, Mean Wind SpeedMPH, Max Gust SpeedMPH,PrecipitationIn, CloudCover, Events, WindDirDegrees
2013-3-1,88,80,72,75,70,65,84,69,49,29.93,29.87,29.80,17,8,6,24,12,,0.00,1,,121
2013-3-2,86,80,74,73,71,68,89,71,57,29.94,29.88,29.83,16,8,6,18,9,,0.00,3,,135
2013-3-3,77,74,71,72,66,61,83,69,51,30.04,29.95,29.86,17,8,6,33,18,,0.02,6,Rain,3
2013-3-4,86,80,73,68,64,61,73,59,45,30.06,29.99,29.95,17,8,6,21,15,,0.00,3,,348
2013-3-5,88,80,72,73,69,64,83,69,49,30.05,29.97,29.83,16,8,6,25,9,,0.00,4,,89
2013-3-6,85,79,73,75,72,68,94,80,61,30.05,29.99,29.89,14,6,1,14,9,,0.91,6,Rain,350
2013-3-7,87,80,72,75,71,69,94,75,56,30.05,29.99,29.95,19,8,6,14,7,,0.00,4,,15
2013-3-8,86,80,73,73,70,68,83,71,56,30.04,29.98,29.92,15,8,6,15,9,,0.00,2,,25
2013-3-9,85,80,74,72,68,63,78,65,48,30.04,29.96,29.92,12,7,6,17,9,,0.00,1,,16
2013-3-10,87,78,68,68,64,61,69,58,40,29.98,29.93,29.89,16,8,6,14,8,,0.00,1,,352
2013-3-11,86,78,71,73,68,64,78,67,51,29.97,29.91,29.86,19,8,6,23,10,,0.00,2,,14
2013-3-12,86,79,72,74,71,66,99,73,54,30.02,29.95,29.89,15,7,5,14,8,,0.12,3,Rain,57
2013-3-13,84,79,74,73,71,70,89,76,63,30.04,29.96,29.92,14,8,6,13,6,,0.00,4,Rain,151
2013-3-14,84,78,73,73,70,66,83,74,60,30.00,29.94,29.89,15,8,6,10,7,,0.00,3,Rain,26
2013-3-15,80,76,73,73,70,68,95,82,69,30.01,29.96,29.89,12,6,1,13,6,,0.12,5,Rain,321
2013-3-16,87,80,73,72,69,66,94,72,52,30.03,29.96,29.89,16,8,6,22,6,,0.00,3,Rain,194
2013-3-17,87,81,75,74,70,68,83,71,59,30.06,29.98,29.92,17,8,6,24,12,,0.00,3,,82
2013-3-18,86,80,74,75,71,68,89,69,55,30.04,29.98,29.92,19,8,5,25,12,,0.00,2,,118
2013-3-19,87,82,77,73,70,66,78,68,55,29.99,29.94,29.89,19,8,6,24,13,,0.00,2,,122
2013-3-20,85,79,73,75,71,66,89,76,62,29.96,29.90,29.86,16,7,4,37,7,,0.02,3,Rain,93
2013-3-21,86,80,74,73,71,69,94,74,60,29.94,29.89,29.83,16,8,6,14,6,,0.00,1,,162
2013-3-22,88,81,74,73,71,70,84,70,53,29.99,29.93,29.86,16,8,6,24,9,,0.00,1,,104
2013-3-23,88,82,75,76,73,68,89,74,61,30.01,29.93,29.86,17,8,6,26,12,,0.00,1,,99
2013-3-24,88,84,79,75,74,72,84,75,61,29.95,29.88,29.83,14,8,6,22,16,,0.00,2,Rain,133
2013-3-25,87,82,78,75,73,70,83,73,53,29.95,29.88,29.83,19,8,6,22,15,,0.00,1,Rain,134
2013-3-26,89,82,74,75,72,70,79,72,52,30.01,29.93,29.89,16,8,6,21,9,,0.00,2,,74
2013-3-27,89,82,74,75,72,68,83,70,49,30.02,29.98,29.95,16,8,6,15,9,,0.00,1,,302
2013-3-28,90,83,76,75,71,68,78,69,55,30.04,29.98,29.92,15,8,6,13,8,,0.00,4,,318
2013-3-29,89,82,75,72,69,64,78,65,51,30.06,30.00,29.95,19,8,6,78,10,,0.00,3,,277
2013-3-30,85,80,75,73,69,66,83,71,54,30.07,30.01,29.98,12,7,5,15,9,,0.01,5,Rain,346
2013-3-31,90,82,74,73,71,68,83,68,47,30.04,29.98,29.92,19,8,6,31,14,,0.00,1,Rain,91